This is the latest recevied weather packets stored in our database for station/object KE4EST. If no packets are shown the sender has not sent any weather packets the latest 10 day(s).
| Time | Temp. | Humidity | Pressure | Rain* | Wind** | Luminosity | Snow |
|---|---|---|---|---|---|---|---|
| 1778166057 | 14.44° C | 99% | 1012.5 hPa | 0 mm | - | 185 W/m² | - |
| 1778165752 | 14.44° C | 99% | 1012.8 hPa | 0 mm | - | 137 W/m² | - |
| 1778165450 | 14.44° C | 99% | 1012.7 hPa | 0 mm | - | 201 W/m² | - |
| 1778165146 | 14.44° C | 99% | 1012.6 hPa | 0 mm | - | 194 W/m² | - |
| 1778164844 | 14.44° C | 99% | 1012.7 hPa | 0 mm | - | 211 W/m² | - |
| 1778164541 | 14.44° C | 99% | 1012.9 hPa | 0 mm | - | 159 W/m² | - |
| 1778164239 | 14.44° C | 99% | 1012.8 hPa | 0 mm | - | 195 W/m² | - |
| 1778163938 | 14.44° C | 99% | 1012.9 hPa | 0 mm | - | 71 W/m² | - |
| 1778163631 | 14.44° C | 99% | 1012.9 hPa | 0 mm | - | 88 W/m² | - |
| 1778163327 | 14.44° C | 99% | 1012.6 hPa | 0 mm | - | 93 W/m² | - |
| 1778163024 | 15° C | 99% | 1012.4 hPa | 0 mm | - | 125 W/m² | - |
| 1778162721 | 15° C | 99% | 1012.6 hPa | 0 mm | - | 105 W/m² | - |
| 1778162418 | 15° C | 99% | 1012.9 hPa | 0 mm | - | 117 W/m² | - |
| 1778162115 | 15° C | 99% | 1012.3 hPa | 0 mm | - | 118 W/m² | - |
| 1778161812 | 15° C | 99% | 1012.1 hPa | 0 mm | - | 179 W/m² | - |
| 1778161503 | 15° C | 99% | 1012.3 hPa | 0 mm | - | 100 W/m² | - |
| 1778161199 | 15° C | 99% | 1012.2 hPa | 0 mm | - | 92 W/m² | - |
| 1778160895 | 15° C | 99% | 1012.1 hPa | 0 mm | - | 82 W/m² | - |
| 1778160593 | 15° C | 99% | 1011.9 hPa | 0 mm | - | 87 W/m² | - |
| 1778160289 | 15° C | 99% | 1011.9 hPa | 0 mm | - | 144 W/m² | - |
| 1778159986 | 15° C | 99% | 1012.1 hPa | 0 mm | - | 82 W/m² | - |
| 1778159683 | 15° C | 99% | 1011.5 hPa | 0 mm | - | 125 W/m² | - |
| 1778159380 | 15° C | 99% | 1011.5 hPa | 0 mm | - | 107 W/m² | - |
| 1778159077 | 15° C | 99% | 1011.4 hPa | 0 mm | - | 92 W/m² | - |
| 1778158776 | 15° C | 99% | 1011.8 hPa | 0 mm | - | 46 W/m² | - |
* Rain latest hour (hover to see other rain measurements)
** Current wind speed in m/s (hover to see current wind gust speed)